createdAt,value
2024-05-09T00:02:08.241Z,17.33
2024-05-09T00:04:35.004Z,17.22
2024-05-09T00:07:02.017Z,17.19
2024-05-09T00:09:28.607Z,17.28
2024-05-09T00:11:55.487Z,17.31
2024-05-09T00:14:22.223Z,17.28
2024-05-09T00:16:49.764Z,17.27
2024-05-09T00:19:16.651Z,17.16
2024-05-09T00:21:43.762Z,17.27
2024-05-09T00:24:10.411Z,17.15
2024-05-09T00:26:37.011Z,17.23
2024-05-09T00:29:03.818Z,17.24
2024-05-09T00:31:30.417Z,17.17
2024-05-09T00:33:57.361Z,17.26
2024-05-09T00:36:24.181Z,17.23
2024-05-09T00:38:50.828Z,17.17
2024-05-09T00:41:19.660Z,17.17
2024-05-09T00:43:46.595Z,17.18
2024-05-09T00:46:13.781Z,17.14
2024-05-09T00:48:41.180Z,17.11
2024-05-09T00:51:08.027Z,17.11
2024-05-09T00:53:34.943Z,17.14
2024-05-09T00:56:01.934Z,17.16
2024-05-09T00:58:29.426Z,17.27
2024-05-09T01:00:59.312Z,17.27
2024-05-09T01:03:26.999Z,17.28
2024-05-09T01:05:54.555Z,17.18
2024-05-09T01:08:21.711Z,17.28
2024-05-09T01:10:48.882Z,17.19
2024-05-09T01:13:15.792Z,17.27
2024-05-09T01:15:43.326Z,17.34
2024-05-09T01:18:12.547Z,17.35
2024-05-09T01:20:43.285Z,17.25
2024-05-09T01:23:14.173Z,17.36
2024-05-09T01:25:42.531Z,17.33
2024-05-09T01:28:09.232Z,17.28
2024-05-09T01:30:37.739Z,17.36
2024-05-09T01:33:07.242Z,17.25
2024-05-09T01:35:35.895Z,17.33
2024-05-09T01:38:02.782Z,17.24
2024-05-09T01:40:37.074Z,17.32
2024-05-09T01:43:06.825Z,17.33
2024-05-09T01:45:33.646Z,17.32
2024-05-09T01:48:00.668Z,17.33
2024-05-09T01:52:57.153Z,17.31
2024-05-09T01:55:23.830Z,17.28
2024-05-09T01:57:50.445Z,17.19
2024-05-09T02:00:22.443Z,17.18
2024-05-09T02:02:57.890Z,17.14
2024-05-09T02:05:24.801Z,17.25
2024-05-09T02:07:51.477Z,17.23
2024-05-09T02:10:23.520Z,17.24
2024-05-09T02:12:56.838Z,17.22
2024-05-09T02:15:23.456Z,17.04
2024-05-09T02:17:50.691Z,17.18
2024-05-09T02:20:26.757Z,17.20
2024-05-09T02:22:57.624Z,17.11
2024-05-09T02:25:24.963Z,17.16
2024-05-09T02:27:51.515Z,17.08
2024-05-09T02:30:26.325Z,17.11
2024-05-09T02:33:03.971Z,17.08
2024-05-09T02:35:30.801Z,17.11
2024-05-09T02:37:57.723Z,17.09
2024-05-09T02:40:33.221Z,17.11
2024-05-09T02:43:03.823Z,17.19
2024-05-09T02:45:30.441Z,17.11
2024-05-09T02:47:57.405Z,17.12
2024-05-09T02:50:33.076Z,17.11
2024-05-09T02:53:04.458Z,17.26
2024-05-09T02:55:31.218Z,17.17
2024-05-09T02:57:57.901Z,17.25
2024-05-09T03:00:34.174Z,17.14
2024-05-09T03:03:06.383Z,17.25
2024-05-09T03:05:33.522Z,17.24
2024-05-09T03:08:00.317Z,17.12
2024-05-09T03:10:29.158Z,17.13
2024-05-09T03:13:06.067Z,17.23
2024-05-09T03:15:33.181Z,17.12
2024-05-09T03:18:00.890Z,17.09
2024-05-09T03:20:33.491Z,17.18
2024-05-09T03:23:02.297Z,16.99
2024-05-09T03:25:29.087Z,17.05
2024-05-09T03:27:55.761Z,17.11
2024-05-09T03:30:31.254Z,16.98
2024-05-09T03:33:10.405Z,17.05
2024-05-09T03:35:37.354Z,16.95
2024-05-09T03:38:04.309Z,17.14
2024-05-09T03:40:31.438Z,17.13
2024-05-09T03:42:58.880Z,17.11
2024-05-09T03:45:25.675Z,17.10
2024-05-09T03:47:52.876Z,17.10
2024-05-09T03:50:29.533Z,17.10
2024-05-09T03:53:00.531Z,17.09
2024-05-09T03:55:27.357Z,16.95
2024-05-09T03:57:54.011Z,17.09
2024-05-09T04:00:30.451Z,17.03
2024-05-09T04:03:02.885Z,16.92
2024-05-09T04:05:31.134Z,17.13
2024-05-09T04:07:58.254Z,17.11
2024-05-09T04:10:32.394Z,17.00
2024-05-09T04:13:00.814Z,17.10
2024-05-09T04:15:27.521Z,16.94
2024-05-09T04:17:54.456Z,17.10
2024-05-09T04:20:32.546Z,17.05
2024-05-09T04:23:05.581Z,17.11
2024-05-09T04:25:32.450Z,17.01
2024-05-09T04:27:59.109Z,16.95
2024-05-09T04:30:34.764Z,17.13
2024-05-09T04:33:06.917Z,17.16
2024-05-09T04:35:34.786Z,17.07
2024-05-09T04:38:01.611Z,17.16
2024-05-09T04:40:33.863Z,17.11
2024-05-09T04:43:04.073Z,17.15
2024-05-09T04:45:30.791Z,17.16
2024-05-09T04:47:57.916Z,17.16
2024-05-09T04:50:32.755Z,17.16
2024-05-09T04:53:03.543Z,17.16
2024-05-09T04:55:30.436Z,17.09
2024-05-09T04:57:57.081Z,17.21
2024-05-09T05:00:32.428Z,17.14
2024-05-09T05:03:10.586Z,17.27
2024-05-09T05:05:42.712Z,17.29
2024-05-09T05:08:13.774Z,17.11
2024-05-09T05:10:41.314Z,17.22
2024-05-09T05:13:18.422Z,17.21
2024-05-09T05:16:04.877Z,17.38
2024-05-09T05:18:31.629Z,17.31
2024-05-09T05:20:58.824Z,17.33
2024-05-09T05:23:25.776Z,17.27
2024-05-09T05:25:53.369Z,17.23
2024-05-09T05:28:21.577Z,17.31
2024-05-09T05:30:48.193Z,17.46
2024-05-09T05:33:18.773Z,17.43
2024-05-09T05:35:45.986Z,17.51
2024-05-09T05:38:12.590Z,17.52
2024-05-09T05:40:40.429Z,17.50
2024-05-09T05:43:09.324Z,17.58
2024-05-09T05:45:36.438Z,17.61
2024-05-09T05:48:04.637Z,17.98
2024-05-09T05:50:36.034Z,18.35
2024-05-09T05:53:06.470Z,19.18
2024-05-09T05:55:33.407Z,19.69
2024-05-09T05:58:01.599Z,20.11
2024-05-09T06:00:34.827Z,20.53
2024-05-09T06:03:05.602Z,21.12
2024-05-09T06:05:32.950Z,20.44
2024-05-09T06:07:59.771Z,19.04
2024-05-09T06:10:36.717Z,19.43
2024-05-09T06:13:05.978Z,20.06
2024-05-09T06:15:32.574Z,20.53
2024-05-09T06:17:59.581Z,20.94
2024-05-09T06:20:34.903Z,21.15
2024-05-09T06:23:04.233Z,21.53
2024-05-09T06:25:31.037Z,21.62
2024-05-09T06:27:57.694Z,21.80
2024-05-09T06:30:30.853Z,21.97
2024-05-09T06:33:05.941Z,21.92
2024-05-09T06:35:33.659Z,22.23
2024-05-09T06:38:00.653Z,22.31
2024-05-09T06:40:36.168Z,22.33
2024-05-09T06:43:10.183Z,22.40
2024-05-09T06:45:37.112Z,22.55
2024-05-09T06:48:04.215Z,22.43
2024-05-09T06:50:37.000Z,22.53
2024-05-09T06:53:05.340Z,22.57
2024-05-09T06:55:32.107Z,22.57
2024-05-09T06:57:58.706Z,22.62
2024-05-09T07:00:34.368Z,22.70
2024-05-09T07:03:13.864Z,22.64
2024-05-09T07:05:42.964Z,22.63
2024-05-09T07:08:10.364Z,22.59
2024-05-09T07:10:37.525Z,22.64
2024-05-09T07:13:11.422Z,22.66
2024-05-09T07:15:38.482Z,22.75
2024-05-09T07:18:17.137Z,22.59
2024-05-09T07:20:45.538Z,22.74
2024-05-09T07:23:12.563Z,22.75
2024-05-09T07:25:40.606Z,22.69
2024-05-09T07:28:13.253Z,22.77
2024-05-09T07:30:39.911Z,22.78
2024-05-09T07:33:06.747Z,22.75
2024-05-09T07:35:33.725Z,22.76
2024-05-09T07:38:00.717Z,22.79
2024-05-09T07:40:35.008Z,22.78
2024-05-09T07:43:13.088Z,22.65
2024-05-09T07:45:49.873Z,22.67
2024-05-09T07:52:37.602Z,22.77
2024-05-09T07:53:47.898Z,22.37
2024-05-09T07:56:19.115Z,22.28
2024-05-09T07:58:49.969Z,22.32
2024-05-09T08:01:16.621Z,22.38
2024-05-09T08:03:43.561Z,22.46
2024-05-09T08:06:10.295Z,22.55
2024-05-09T08:08:36.895Z,22.57
2024-05-09T08:11:03.648Z,22.57
2024-05-09T08:13:30.293Z,22.67
2024-05-09T08:15:56.926Z,22.68
2024-05-09T08:18:23.898Z,22.76
2024-05-09T08:20:50.996Z,22.73
2024-05-09T08:23:17.997Z,22.77
2024-05-09T08:25:44.721Z,22.82
2024-05-09T08:28:11.717Z,22.85
2024-05-09T08:30:38.853Z,22.89
2024-05-09T08:33:06.954Z,22.86
2024-05-09T08:35:34.768Z,22.85
2024-05-09T08:38:03.424Z,22.83
2024-05-09T08:40:35.655Z,22.90
2024-05-09T08:43:08.257Z,22.89
2024-05-09T08:45:36.855Z,22.88
2024-05-09T08:48:07.788Z,22.92
2024-05-09T08:50:39.203Z,22.92
2024-05-09T09:02:45.157Z,22.42
2024-05-09T09:05:17.051Z,22.25
2024-05-09T09:07:48.417Z,22.22
2024-05-09T09:10:28.909Z,22.04
2024-05-09T09:13:03.450Z,21.74
2024-05-09T09:15:30.429Z,21.87
2024-05-09T09:18:00.946Z,21.81
2024-05-09T09:20:34.061Z,21.85
2024-05-09T09:23:03.683Z,21.90
2024-05-09T09:25:30.533Z,22.04
2024-05-09T09:27:58.309Z,22.02
2024-05-09T09:30:35.284Z,22.02
2024-05-09T09:33:13.968Z,22.25
2024-05-09T09:35:41.068Z,22.01
2024-05-09T09:38:10.083Z,22.02
2024-05-09T09:40:42.995Z,22.15
2024-05-09T09:43:21.579Z,22.20
2024-05-09T09:45:53.410Z,22.17
2024-05-09T09:48:21.641Z,22.21
2024-05-09T09:50:51.197Z,22.26
2024-05-09T09:53:19.454Z,22.19
2024-05-09T09:55:47.033Z,22.24
2024-05-09T09:58:16.403Z,22.33
2024-05-09T10:01:27.035Z,22.37
2024-05-09T10:03:53.912Z,22.37
2024-05-09T10:06:21.790Z,22.35
2024-05-09T10:08:49.585Z,22.53
2024-05-09T10:11:21.211Z,22.66
2024-05-09T10:13:48.212Z,22.72
2024-05-09T10:16:21.075Z,22.76
2024-05-09T10:18:47.950Z,22.73
2024-05-09T10:21:17.585Z,22.84
2024-05-09T10:23:56.089Z,22.84
2024-05-09T10:26:32.086Z,22.82
2024-05-09T10:28:59.187Z,22.79
2024-05-09T10:31:29.804Z,22.88
2024-05-09T10:33:56.846Z,22.87
2024-05-09T10:36:25.826Z,22.88
2024-05-09T10:38:53.915Z,22.95
2024-05-09T10:41:22.192Z,22.93
2024-05-09T10:43:50.393Z,22.89
2024-05-09T10:46:19.130Z,22.89
2024-05-09T10:48:47.621Z,23.02
2024-05-09T10:51:14.678Z,23.06
2024-05-09T10:53:45.308Z,23.07
2024-05-09T10:56:13.917Z,23.00
2024-05-09T10:58:40.824Z,22.82
2024-05-09T11:01:09.211Z,23.05
2024-05-09T11:03:36.997Z,23.15
2024-05-09T11:06:04.407Z,23.20
2024-05-09T11:08:32.459Z,23.24
2024-05-09T11:10:59.935Z,23.23
2024-05-09T11:13:31.654Z,23.27
2024-05-09T11:15:59.344Z,23.39
2024-05-09T11:18:29.781Z,23.47
2024-05-09T11:20:58.999Z,23.38
2024-05-09T11:23:27.502Z,23.40
2024-05-09T11:25:55.609Z,23.57
2024-05-09T11:28:22.897Z,23.57
2024-05-09T11:30:50.761Z,23.63
2024-05-09T11:33:19.314Z,23.65
2024-05-09T11:35:47.120Z,23.62
2024-05-09T11:38:14.349Z,23.61
2024-05-09T11:40:41.100Z,23.74
2024-05-09T11:43:07.880Z,23.72
2024-05-09T11:45:34.682Z,23.79
2024-05-09T11:48:01.643Z,23.75
2024-05-09T11:50:33.109Z,23.71
2024-05-09T11:53:02.338Z,23.74
2024-05-09T11:55:29.266Z,23.78
2024-05-09T11:57:56.660Z,23.78
2024-05-09T12:00:33.791Z,23.75
2024-05-09T12:03:05.391Z,23.85
2024-05-09T12:05:33.147Z,23.84
2024-05-09T12:08:00.821Z,23.93
2024-05-09T12:10:33.168Z,23.89
2024-05-09T12:13:03.158Z,23.91
2024-05-09T12:15:30.964Z,23.69
2024-05-09T12:18:00.052Z,23.72
2024-05-09T12:20:35.640Z,23.90
2024-05-09T12:23:05.503Z,23.82
2024-05-09T12:25:32.275Z,23.83
2024-05-09T12:27:59.092Z,23.92
2024-05-09T12:30:35.213Z,23.98
2024-05-09T12:33:05.980Z,23.91
2024-05-09T12:35:33.042Z,23.98
2024-05-09T12:38:00.122Z,24.13
2024-05-09T12:40:34.814Z,24.05
2024-05-09T12:43:05.094Z,24.06
2024-05-09T12:45:31.932Z,24.05
2024-05-09T12:47:58.924Z,24.20
2024-05-09T12:50:32.262Z,24.25
2024-05-09T12:53:01.459Z,24.21
2024-05-09T12:55:30.170Z,24.24
2024-05-09T12:58:00.883Z,24.04
2024-05-09T13:00:31.788Z,24.21
2024-05-09T13:03:01.214Z,24.10
2024-05-09T13:05:28.424Z,24.29
2024-05-09T13:07:56.928Z,23.96
2024-05-09T13:10:31.198Z,24.09
2024-05-09T13:13:00.557Z,24.01
2024-05-09T13:15:27.727Z,24.02
2024-05-09T13:17:57.008Z,24.00
2024-05-09T13:20:31.782Z,24.13
2024-05-09T13:23:05.559Z,24.17
2024-05-09T13:25:34.932Z,24.15
2024-05-09T13:28:02.443Z,24.30
2024-05-09T13:30:38.262Z,24.21
2024-05-09T13:33:09.636Z,24.27
2024-05-09T13:35:36.767Z,24.16
2024-05-09T13:38:04.846Z,24.26
2024-05-09T13:40:34.758Z,24.27
2024-05-09T13:43:06.220Z,24.27
2024-05-09T13:45:33.721Z,24.30
2024-05-09T13:48:02.350Z,24.48
2024-05-09T13:50:35.892Z,24.45
2024-05-09T13:53:06.214Z,24.44
2024-05-09T13:55:34.137Z,24.52
2024-05-09T13:58:01.355Z,24.56
2024-05-09T14:00:41.680Z,24.63
2024-05-09T14:03:13.963Z,24.68
2024-05-09T14:05:41.143Z,24.71
2024-05-09T14:08:08.690Z,24.64
2024-05-09T14:10:35.672Z,24.72
2024-05-09T14:13:02.466Z,24.67
2024-05-09T14:15:29.668Z,24.65
2024-05-09T14:17:56.515Z,24.69
2024-05-09T14:20:30.394Z,24.72
2024-05-09T14:22:59.804Z,24.68
2024-05-09T14:25:31.993Z,24.59
2024-05-09T14:27:59.144Z,24.64
2024-05-09T14:30:35.891Z,24.64
2024-05-09T14:33:05.710Z,24.61
2024-05-09T14:35:33.063Z,24.55
2024-05-09T14:37:59.857Z,24.64
2024-05-09T14:40:36.939Z,24.61
2024-05-09T14:43:08.745Z,24.58
2024-05-09T14:45:35.743Z,24.64
2024-05-09T14:48:03.363Z,24.65
2024-05-09T14:50:36.066Z,24.50
2024-05-09T14:53:08.986Z,24.54
2024-05-09T14:55:37.723Z,24.48
2024-05-09T14:58:09.336Z,24.52
2024-05-09T15:00:49.920Z,24.55
2024-05-09T15:03:19.545Z,24.47
2024-05-09T15:05:47.492Z,24.53
2024-05-09T15:08:14.271Z,24.55
2024-05-09T15:10:41.081Z,24.46
2024-05-09T15:13:09.784Z,24.51
2024-05-09T15:15:38.128Z,24.60
2024-05-09T15:18:06.305Z,24.66
2024-05-09T15:20:36.275Z,24.64
2024-05-09T15:23:05.344Z,24.62
2024-05-09T15:25:36.669Z,24.72
2024-05-09T15:28:04.517Z,24.57
2024-05-09T15:30:33.500Z,24.63
2024-05-09T15:33:04.050Z,24.60
2024-05-09T15:35:31.155Z,24.56
2024-05-09T15:37:57.798Z,24.49
2024-05-09T15:40:34.845Z,24.41
2024-05-09T15:43:06.672Z,24.48
2024-05-09T15:45:34.463Z,24.50
2024-05-09T15:48:02.586Z,24.44
2024-05-09T15:50:36.950Z,24.58
2024-05-09T15:53:07.881Z,24.45
2024-05-09T15:55:35.544Z,24.39
2024-05-09T15:58:04.175Z,24.54
2024-05-09T16:03:01.249Z,24.49
2024-05-09T16:05:28.259Z,24.52
2024-05-09T16:07:55.159Z,24.41
2024-05-09T16:10:25.982Z,24.24
2024-05-09T16:12:59.078Z,24.39
2024-05-09T16:15:26.064Z,24.12
2024-05-09T16:17:52.817Z,24.33
2024-05-09T16:20:29.928Z,24.22
2024-05-09T16:23:05.299Z,24.28
2024-05-09T16:25:31.919Z,24.19
2024-05-09T16:27:58.779Z,24.12
2024-05-09T16:30:32.010Z,24.15
2024-05-09T16:33:02.429Z,24.11
2024-05-09T16:35:29.431Z,23.96
2024-05-09T16:37:56.161Z,23.98
2024-05-09T16:40:30.276Z,23.82
2024-05-09T16:43:04.717Z,23.93
2024-05-09T16:45:32.016Z,23.87
2024-05-09T16:48:00.070Z,23.83
2024-05-09T16:50:32.514Z,23.76
2024-05-09T16:53:02.069Z,23.85
2024-05-09T16:55:29.042Z,23.84
2024-05-09T16:57:57.269Z,23.81
2024-05-09T17:00:35.214Z,23.70
2024-05-09T17:03:07.962Z,23.72
2024-05-09T17:05:35.548Z,23.70
2024-05-09T17:08:03.059Z,23.68
2024-05-09T17:10:33.557Z,23.56
2024-05-09T17:13:03.216Z,23.52
2024-05-09T17:15:31.074Z,23.58
2024-05-09T17:17:58.153Z,23.50
2024-05-09T17:20:31.883Z,23.54
2024-05-09T17:23:02.923Z,23.32
2024-05-09T17:25:29.832Z,23.45
2024-05-09T17:27:57.086Z,23.37
2024-05-09T17:30:32.183Z,23.30
2024-05-09T17:33:04.239Z,23.24
2024-05-09T17:35:31.850Z,23.10
2024-05-09T17:37:59.711Z,23.02
2024-05-09T17:40:33.227Z,23.06
2024-05-09T17:43:03.343Z,22.97
2024-05-09T17:45:30.618Z,22.87
2024-05-09T17:47:58.063Z,22.81
2024-05-09T17:50:31.383Z,22.74
2024-05-09T17:53:02.388Z,22.58
2024-05-09T17:55:29.322Z,22.43
2024-05-09T17:57:56.237Z,22.42
2024-05-09T18:00:33.163Z,22.25
2024-05-09T18:03:06.342Z,22.20
2024-05-09T18:05:34.048Z,22.05
2024-05-09T18:08:00.803Z,21.92
2024-05-09T18:10:35.154Z,21.75
2024-05-09T18:13:06.169Z,21.63
2024-05-09T18:15:33.599Z,21.61
2024-05-09T18:18:01.713Z,21.40
2024-05-09T18:20:37.732Z,21.39
2024-05-09T18:23:10.262Z,21.26
2024-05-09T18:25:37.315Z,21.14
2024-05-09T18:28:04.478Z,21.02
2024-05-09T18:30:34.593Z,20.95
2024-05-09T18:33:04.477Z,20.87
2024-05-09T18:35:31.806Z,20.76
2024-05-09T18:37:58.525Z,20.59
2024-05-09T18:40:32.412Z,20.45
2024-05-09T18:43:02.778Z,20.33
2024-05-09T18:45:29.769Z,20.16
2024-05-09T18:47:56.834Z,20.08
2024-05-09T18:50:32.360Z,20.03
2024-05-09T18:53:05.878Z,19.93
2024-05-09T18:55:32.952Z,19.82
2024-05-09T18:57:59.886Z,19.73
2024-05-09T19:00:33.975Z,19.67
2024-05-09T19:03:06.179Z,19.26
2024-05-09T19:05:35.316Z,19.49
2024-05-09T19:08:03.118Z,19.31
2024-05-09T19:10:34.277Z,19.30
2024-05-09T19:13:06.496Z,19.22
2024-05-09T19:15:37.202Z,19.08
2024-05-09T19:18:04.334Z,18.97
2024-05-09T19:20:35.598Z,18.86
2024-05-09T19:23:03.782Z,18.79
2024-05-09T19:25:30.522Z,18.56
2024-05-09T19:27:57.376Z,18.57
2024-05-09T19:30:32.914Z,18.39
2024-05-09T19:33:05.813Z,18.37
2024-05-09T19:35:32.929Z,18.35
2024-05-09T19:37:59.742Z,18.17
2024-05-09T19:40:31.881Z,18.06
2024-05-09T19:43:02.012Z,18.08
2024-05-09T19:45:29.405Z,17.94
2024-05-09T19:47:56.708Z,17.82
2024-05-09T19:50:32.151Z,17.67
2024-05-09T19:53:06.717Z,17.57
2024-05-09T19:55:33.892Z,17.60
2024-05-09T19:58:04.852Z,17.49
2024-05-09T20:00:39.060Z,17.47
2024-05-09T20:03:08.508Z,17.37
2024-05-09T20:05:36.292Z,17.31
2024-05-09T20:08:03.736Z,17.14
2024-05-09T20:10:33.098Z,17.35
2024-05-09T20:13:02.465Z,17.27
2024-05-09T20:15:29.400Z,17.14
2024-05-09T20:17:56.383Z,17.18
2024-05-09T20:20:33.094Z,17.09
2024-05-09T20:23:06.211Z,17.05
2024-05-09T20:25:32.929Z,17.02
2024-05-09T20:27:59.646Z,16.95
2024-05-09T20:30:31.953Z,16.91
2024-05-09T20:33:02.888Z,16.93
2024-05-09T20:35:32.416Z,16.89
2024-05-09T20:37:59.643Z,16.75
2024-05-09T20:40:32.531Z,16.70
2024-05-09T20:43:02.980Z,16.76
2024-05-09T20:45:29.637Z,16.69
2024-05-09T20:47:57.329Z,16.49
2024-05-09T20:50:34.829Z,16.51
2024-05-09T20:53:05.608Z,16.36
2024-05-09T20:55:32.323Z,16.31
2024-05-09T20:57:59.067Z,16.23
2024-05-09T21:00:34.576Z,16.20
2024-05-09T21:03:06.922Z,15.98
2024-05-09T21:05:34.646Z,16.21
2024-05-09T21:08:01.784Z,16.13
2024-05-09T21:10:32.710Z,16.11
2024-05-09T21:13:01.388Z,15.94
2024-05-09T21:15:28.346Z,15.90
2024-05-09T21:17:55.227Z,15.99
2024-05-09T21:20:28.723Z,15.85
2024-05-09T21:22:58.494Z,15.79
2024-05-09T21:25:25.287Z,15.78
2024-05-09T21:27:52.339Z,15.69
2024-05-09T21:30:31.187Z,15.79
2024-05-09T21:33:05.857Z,15.74
2024-05-09T21:35:32.817Z,15.73
2024-05-09T21:37:59.423Z,15.66
2024-05-09T21:40:33.396Z,15.76
2024-05-09T21:43:02.212Z,15.65
2024-05-09T21:45:28.870Z,15.58
2024-05-09T21:47:55.658Z,15.41
2024-05-09T21:50:28.397Z,15.57
2024-05-09T21:53:02.705Z,15.45
2024-05-09T21:55:30.019Z,15.58
2024-05-09T21:57:56.927Z,15.45
2024-05-09T22:00:32.024Z,15.56
2024-05-09T22:03:03.132Z,15.46
2024-05-09T22:05:30.111Z,15.54
2024-05-09T22:07:57.124Z,15.22
2024-05-09T22:10:30.512Z,15.29
2024-05-09T22:13:01.013Z,15.52
2024-05-09T22:15:27.735Z,15.45
2024-05-09T22:17:56.351Z,15.33
2024-05-09T22:20:32.831Z,15.37
2024-05-09T22:23:04.290Z,15.33
2024-05-09T22:25:32.098Z,15.15
2024-05-09T22:27:59.491Z,15.01
2024-05-09T22:30:33.728Z,15.12
2024-05-09T22:33:05.220Z,15.00
2024-05-09T22:35:32.078Z,15.09
2024-05-09T22:37:58.827Z,15.01
2024-05-09T22:40:37.862Z,15.00
2024-05-09T22:43:12.456Z,15.11
2024-05-09T22:45:39.280Z,15.03
2024-05-09T22:48:06.825Z,15.09
2024-05-09T22:50:33.946Z,15.08
2024-05-09T22:53:00.979Z,15.07
2024-05-09T22:55:27.750Z,15.04
2024-05-09T22:57:54.461Z,15.04
2024-05-09T23:00:29.298Z,14.92
2024-05-09T23:03:02.299Z,14.81
2024-05-09T23:05:29.588Z,14.93
2024-05-09T23:07:56.513Z,14.80
2024-05-09T23:10:31.057Z,15.02
2024-05-09T23:13:02.525Z,15.05
2024-05-09T23:15:29.479Z,14.82
2024-05-09T23:17:57.348Z,14.96
2024-05-09T23:20:33.897Z,14.93
2024-05-09T23:23:05.783Z,14.97
2024-05-09T23:25:32.616Z,14.99
2024-05-09T23:27:59.403Z,14.97
2024-05-09T23:30:34.225Z,14.79
2024-05-09T23:33:06.172Z,14.82
2024-05-09T23:35:33.072Z,14.81
2024-05-09T23:37:59.724Z,14.72
2024-05-09T23:40:37.056Z,14.69
2024-05-09T23:43:07.207Z,14.70
2024-05-09T23:45:34.231Z,14.69
2024-05-09T23:48:01.413Z,14.55
2024-05-09T23:50:34.539Z,14.63
2024-05-09T23:53:05.006Z,14.56
2024-05-09T23:55:32.609Z,14.60
2024-05-09T23:57:59.738Z,14.60
